sensor_id;sensor_type;location;lat;lon;timestamp;pressure;altitude;pressure_sealevel;temperature;humidity
69836;BME280;57132;51.972;4.450;2023-02-17T00:00:21;101888.53;;;8.00;100.00
69836;BME280;57132;51.972;4.450;2023-02-17T00:02:46;101888.53;;;8.00;100.00
69836;BME280;57132;51.972;4.450;2023-02-17T00:05:11;101879.66;;;8.00;100.00
69836;BME280;57132;51.972;4.450;2023-02-17T00:07:37;101872.69;;;7.97;100.00
69836;BME280;57132;51.972;4.450;2023-02-17T00:10:04;101885.25;;;7.94;100.00
69836;BME280;57132;51.972;4.450;2023-02-17T00:12:29;101882.84;;;7.87;100.00
69836;BME280;57132;51.972;4.450;2023-02-17T00:14:55;101885.56;;;7.86;100.00
69836;BME280;57132;51.972;4.450;2023-02-17T00:17:20;101891.88;;;7.83;100.00
69836;BME280;57132;51.972;4.450;2023-02-17T00:19:45;101894.63;;;7.82;100.00
69836;BME280;57132;51.972;4.450;2023-02-17T00:22:11;101887.69;;;7.78;100.00
69836;BME280;57132;51.972;4.450;2023-02-17T00:24:38;101899.28;;;7.77;100.00
69836;BME280;57132;51.972;4.450;2023-02-17T00:27:04;101896.72;;;7.74;100.00
69836;BME280;57132;51.972;4.450;2023-02-17T00:29:30;101888.09;;;7.69;100.00
69836;BME280;57132;51.972;4.450;2023-02-17T00:31:55;101891.66;;;7.68;100.00
69836;BME280;57132;51.972;4.450;2023-02-17T00:34:21;101876.72;;;7.65;100.00
69836;BME280;57132;51.972;4.450;2023-02-17T00:36:46;101876.84;;;7.62;100.00
69836;BME280;57132;51.972;4.450;2023-02-17T00:39:14;101876.13;;;7.58;100.00
69836;BME280;57132;51.972;4.450;2023-02-17T00:41:40;101885.03;;;7.57;100.00
69836;BME280;57132;51.972;4.450;2023-02-17T00:44:06;101879.81;;;7.54;100.00
69836;BME280;57132;51.972;4.450;2023-02-17T00:46:31;101868.34;;;7.54;100.00
69836;BME280;57132;51.972;4.450;2023-02-17T00:48:57;101878.03;;;7.55;100.00
69836;BME280;57132;51.972;4.450;2023-02-17T00:51:22;101869.19;;;7.54;100.00
69836;BME280;57132;51.972;4.450;2023-02-17T00:53:48;101863.88;;;7.54;100.00
69836;BME280;57132;51.972;4.450;2023-02-17T00:56:13;101876.38;;;7.52;100.00
69836;BME280;57132;51.972;4.450;2023-02-17T00:58:39;101869.31;;;7.51;100.00
69836;BME280;57132;51.972;4.450;2023-02-17T01:01:06;101857.91;;;7.49;100.00
69836;BME280;57132;51.972;4.450;2023-02-17T01:03:32;101867.59;;;7.50;100.00
69836;BME280;57132;51.972;4.450;2023-02-17T01:05:58;101883.53;;;7.50;100.00
69836;BME280;57132;51.972;4.450;2023-02-17T01:08:24;101873.09;;;7.46;100.00
69836;BME280;57132;51.972;4.450;2023-02-17T01:10:51;101888.09;;;7.47;100.00
69836;BME280;57132;51.972;4.450;2023-02-17T01:13:17;101886.38;;;7.46;100.00
69836;BME280;57132;51.972;4.450;2023-02-17T01:15:46;101886.44;;;7.44;100.00
69836;BME280;57132;51.972;4.450;2023-02-17T01:18:12;101897.22;;;7.41;100.00
69836;BME280;57132;51.972;4.450;2023-02-17T01:20:39;101890.09;;;7.42;100.00
69836;BME280;57132;51.972;4.450;2023-02-17T01:23:05;101896.34;;;7.41;100.00
69836;BME280;57132;51.972;4.450;2023-02-17T01:25:31;101891.06;;;7.39;100.00
69836;BME280;57132;51.972;4.450;2023-02-17T01:28:00;101879.59;;;7.38;100.00
69836;BME280;57132;51.972;4.450;2023-02-17T01:30:25;101877.00;;;7.37;100.00
69836;BME280;57132;51.972;4.450;2023-02-17T01:32:50;101870.75;;;7.38;100.00
69836;BME280;57132;51.972;4.450;2023-02-17T01:35:16;101848.69;;;7.36;100.00
69836;BME280;57132;51.972;4.450;2023-02-17T01:37:41;101868.09;;;7.38;100.00
69836;BME280;57132;51.972;4.450;2023-02-17T01:40:07;101862.59;;;7.43;100.00
69836;BME280;57132;51.972;4.450;2023-02-17T01:42:32;101864.28;;;7.45;100.00
69836;BME280;57132;51.972;4.450;2023-02-17T01:48:05;101857.28;;;7.43;100.00
69836;BME280;57132;51.972;4.450;2023-02-17T01:50:34;101856.50;;;7.41;100.00
69836;BME280;57132;51.972;4.450;2023-02-17T01:53:01;101850.31;;;7.40;100.00
69836;BME280;57132;51.972;4.450;2023-02-17T01:55:27;101858.28;;;7.40;100.00
69836;BME280;57132;51.972;4.450;2023-02-17T01:57:55;101848.56;;;7.39;100.00
69836;BME280;57132;51.972;4.450;2023-02-17T02:00:22;101864.50;;;7.39;100.00
69836;BME280;57132;51.972;4.450;2023-02-17T02:02:49;101846.84;;;7.38;100.00
69836;BME280;57132;51.972;4.450;2023-02-17T02:05:17;101856.63;;;7.37;100.00
69836;BME280;57132;51.972;4.450;2023-02-17T02:07:43;101846.97;;;7.35;100.00
69836;BME280;57132;51.972;4.450;2023-02-17T02:10:11;101839.88;;;7.35;100.00
69836;BME280;57132;51.972;4.450;2023-02-17T02:12:39;101827.59;;;7.33;100.00
69836;BME280;57132;51.972;4.450;2023-02-17T02:23:39;101833.91;;;7.30;100.00
69836;BME280;57132;51.972;4.450;2023-02-17T02:26:40;101820.53;;;7.32;100.00
69836;BME280;57132;51.972;4.450;2023-02-17T02:34:36;101829.25;;;7.35;100.00
69836;BME280;57132;51.972;4.450;2023-02-17T02:37:25;101815.84;;;7.38;100.00
69836;BME280;57132;51.972;4.450;2023-02-17T02:39:56;101819.44;;;7.37;100.00
69836;BME280;57132;51.972;4.450;2023-02-17T02:42:24;101812.22;;;7.41;100.00
69836;BME280;57132;51.972;4.450;2023-02-17T02:44:51;101804.09;;;7.44;100.00
69836;BME280;57132;51.972;4.450;2023-02-17T02:47:48;101807.44;;;7.49;100.00
69836;BME280;57132;51.972;4.450;2023-02-17T03:00:51;101803.44;;;7.59;100.00
69836;BME280;57132;51.972;4.450;2023-02-17T03:03:40;101788.31;;;7.61;100.00
69836;BME280;57132;51.972;4.450;2023-02-17T03:06:15;101778.41;;;7.65;100.00
69836;BME280;57132;51.972;4.450;2023-02-17T03:08:47;101763.25;;;7.67;100.00
69836;BME280;57132;51.972;4.450;2023-02-17T03:11:15;101755.22;;;7.69;100.00
69836;BME280;57132;51.972;4.450;2023-02-17T03:14:03;101801.91;;;7.74;100.00
69836;BME280;57132;51.972;4.450;2023-02-17T03:16:28;101763.84;;;7.74;100.00
69836;BME280;57132;51.972;4.450;2023-02-17T03:18:54;101762.72;;;7.79;100.00
69836;BME280;57132;51.972;4.450;2023-02-17T03:21:19;101769.69;;;7.82;100.00
69836;BME280;57132;51.972;4.450;2023-02-17T03:23:44;101757.91;;;7.87;100.00
69836;BME280;57132;51.972;4.450;2023-02-17T03:26:10;101750.81;;;7.88;100.00
69836;BME280;57132;51.972;4.450;2023-02-17T03:28:35;101754.19;;;7.92;100.00
69836;BME280;57132;51.972;4.450;2023-02-17T03:31:02;101735.56;;;7.92;100.00
69836;BME280;57132;51.972;4.450;2023-02-17T03:33:27;101747.75;;;7.97;100.00
69836;BME280;57132;51.972;4.450;2023-02-17T03:35:52;101760.00;;;8.00;100.00
69836;BME280;57132;51.972;4.450;2023-02-17T03:38:18;101761.63;;;8.04;100.00
69836;BME280;57132;51.972;4.450;2023-02-17T03:40:43;101764.06;;;8.08;100.00
69836;BME280;57132;51.972;4.450;2023-02-17T03:43:09;101770.13;;;8.12;100.00
69836;BME280;57132;51.972;4.450;2023-02-17T03:45:36;101759.47;;;8.12;100.00
69836;BME280;57132;51.972;4.450;2023-02-17T03:48:02;101752.16;;;8.17;100.00
69836;BME280;57132;51.972;4.450;2023-02-17T03:50:27;101761.06;;;8.16;100.00
69836;BME280;57132;51.972;4.450;2023-02-17T03:52:52;101766.31;;;8.18;100.00
69836;BME280;57132;51.972;4.450;2023-02-17T03:55:18;101769.59;;;8.23;100.00
69836;BME280;57132;51.972;4.450;2023-02-17T03:57:43;101763.50;;;8.21;100.00
69836;BME280;57132;51.972;4.450;2023-02-17T04:00:09;101760.03;;;8.19;100.00
69836;BME280;57132;51.972;4.450;2023-02-17T04:02:34;101768.03;;;8.19;100.00
69836;BME280;57132;51.972;4.450;2023-02-17T04:05:00;101767.97;;;8.20;100.00
69836;BME280;57132;51.972;4.450;2023-02-17T04:07:25;101758.09;;;8.22;100.00
69836;BME280;57132;51.972;4.450;2023-02-17T04:09:50;101757.34;;;8.20;100.00
69836;BME280;57132;51.972;4.450;2023-02-17T04:12:16;101773.13;;;8.23;100.00
69836;BME280;57132;51.972;4.450;2023-02-17T04:14:41;101758.97;;;8.23;100.00
69836;BME280;57132;51.972;4.450;2023-02-17T04:17:06;101775.88;;;8.22;100.00
69836;BME280;57132;51.972;4.450;2023-02-17T04:19:32;101764.22;;;8.24;100.00
69836;BME280;57132;51.972;4.450;2023-02-17T04:21:57;101775.72;;;8.25;100.00
69836;BME280;57132;51.972;4.450;2023-02-17T04:24:22;101779.25;;;8.25;100.00
69836;BME280;57132;51.972;4.450;2023-02-17T04:26:48;101750.09;;;8.24;100.00
69836;BME280;57132;51.972;4.450;2023-02-17T04:29:13;101765.00;;;8.26;100.00
69836;BME280;57132;51.972;4.450;2023-02-17T04:31:38;101762.13;;;8.31;100.00
69836;BME280;57132;51.972;4.450;2023-02-17T04:34:04;101759.41;;;8.32;100.00
69836;BME280;57132;51.972;4.450;2023-02-17T04:36:29;101757.66;;;8.31;100.00
69836;BME280;57132;51.972;4.450;2023-02-17T04:38:54;101752.31;;;8.33;100.00
69836;BME280;57132;51.972;4.450;2023-02-17T04:41:20;101742.38;;;8.36;100.00
69836;BME280;57132;51.972;4.450;2023-02-17T04:43:45;101739.66;;;8.38;100.00
69836;BME280;57132;51.972;4.450;2023-02-17T04:46:11;101727.22;;;8.38;100.00
69836;BME280;57132;51.972;4.450;2023-02-17T04:48:37;101730.75;;;8.39;100.00
69836;BME280;57132;51.972;4.450;2023-02-17T04:51:02;101745.78;;;8.40;100.00
69836;BME280;57132;51.972;4.450;2023-02-17T04:53:28;101751.88;;;8.42;100.00
69836;BME280;57132;51.972;4.450;2023-02-17T04:55:53;101755.50;;;8.41;100.00
69836;BME280;57132;51.972;4.450;2023-02-17T04:58:19;101792.59;;;8.44;100.00
69836;BME280;57132;51.972;4.450;2023-02-17T05:00:46;101770.47;;;8.44;100.00
69836;BME280;57132;51.972;4.450;2023-02-17T05:03:12;101768.72;;;8.43;100.00
69836;BME280;57132;51.972;4.450;2023-02-17T05:05:37;101757.22;;;8.42;100.00
69836;BME280;57132;51.972;4.450;2023-02-17T05:08:03;101757.22;;;8.42;100.00
69836;BME280;57132;51.972;4.450;2023-02-17T05:10:29;101747.38;;;8.44;100.00
69836;BME280;57132;51.972;4.450;2023-02-17T05:12:54;101758.06;;;8.43;100.00
69836;BME280;57132;51.972;4.450;2023-02-17T05:15:19;101753.69;;;8.42;100.00
69836;BME280;57132;51.972;4.450;2023-02-17T05:17:45;101749.22;;;8.42;100.00
69836;BME280;57132;51.972;4.450;2023-02-17T05:20:10;101748.28;;;8.43;100.00
69836;BME280;57132;51.972;4.450;2023-02-17T05:22:36;101772.22;;;8.43;100.00
69836;BME280;57132;51.972;4.450;2023-02-17T05:25:02;101750.03;;;8.44;100.00
69836;BME280;57132;51.972;4.450;2023-02-17T05:27:27;101734.97;;;8.43;100.00
69836;BME280;57132;51.972;4.450;2023-02-17T05:29:53;101725.28;;;8.42;100.00
69836;BME280;57132;51.972;4.450;2023-02-17T05:32:18;101734.22;;;8.41;100.00
69836;BME280;57132;51.972;4.450;2023-02-17T05:34:44;101720.09;;;8.39;100.00
69836;BME280;57132;51.972;4.450;2023-02-17T05:37:09;101721.03;;;8.38;100.00
69836;BME280;57132;51.972;4.450;2023-02-17T05:39:35;101713.13;;;8.36;100.00
69836;BME280;57132;51.972;4.450;2023-02-17T05:42:00;101721.03;;;8.38;100.00
69836;BME280;57132;51.972;4.450;2023-02-17T05:44:26;101704.94;;;8.41;100.00
69836;BME280;57132;51.972;4.450;2023-02-17T05:46:51;101703.88;;;8.45;100.00
69836;BME280;57132;51.972;4.450;2023-02-17T05:49:16;101698.53;;;8.45;100.00
69836;BME280;57132;51.972;4.450;2023-02-17T05:51:42;101708.09;;;8.49;100.00
69836;BME280;57132;51.972;4.450;2023-02-17T05:54:07;101709.81;;;8.50;100.00
69836;BME280;57132;51.972;4.450;2023-02-17T05:56:32;101692.13;;;8.49;100.00
69836;BME280;57132;51.972;4.450;2023-02-17T05:58:58;101697.22;;;8.54;100.00
69836;BME280;57132;51.972;4.450;2023-02-17T06:01:24;101706.94;;;8.55;100.00
69836;BME280;57132;51.972;4.450;2023-02-17T06:03:50;101715.72;;;8.57;100.00
69836;BME280;57132;51.972;4.450;2023-02-17T06:06:15;101707.50;;;8.61;100.00
69836;BME280;57132;51.972;4.450;2023-02-17T06:08:40;101721.53;;;8.65;100.00
69836;BME280;57132;51.972;4.450;2023-02-17T06:11:06;101721.28;;;8.70;100.00
69836;BME280;57132;51.972;4.450;2023-02-17T06:13:31;101706.03;;;8.73;100.00
69836;BME280;57132;51.972;4.450;2023-02-17T06:15:57;101707.69;;;8.76;100.00
69836;BME280;57132;51.972;4.450;2023-02-17T06:18:22;101734.16;;;8.79;100.00
69836;BME280;57132;51.972;4.450;2023-02-17T06:20:48;101718.97;;;8.81;100.00
69836;BME280;57132;51.972;4.450;2023-02-17T06:23:13;101699.47;;;8.80;100.00
69836;BME280;57132;51.972;4.450;2023-02-17T06:25:38;101715.31;;;8.83;100.00
69836;BME280;57132;51.972;4.450;2023-02-17T06:28:04;101712.69;;;8.82;100.00
69836;BME280;57132;51.972;4.450;2023-02-17T06:30:29;101710.84;;;8.84;100.00
69836;BME280;57132;51.972;4.450;2023-02-17T06:32:55;101696.72;;;8.82;100.00
69836;BME280;57132;51.972;4.450;2023-02-17T06:35:22;101736.59;;;8.83;100.00
69836;BME280;57132;51.972;4.450;2023-02-17T06:37:48;101696.72;;;8.82;100.00
69836;BME280;57132;51.972;4.450;2023-02-17T06:40:14;101688.69;;;8.83;100.00
69836;BME280;57132;51.972;4.450;2023-02-17T06:42:39;101697.59;;;8.82;100.00
69836;BME280;57132;51.972;4.450;2023-02-17T06:45:05;101702.06;;;8.82;100.00
69836;BME280;57132;51.972;4.450;2023-02-17T06:47:32;101681.56;;;8.84;100.00
69836;BME280;57132;51.972;4.450;2023-02-17T06:49:57;101677.19;;;8.83;100.00
69836;BME280;57132;51.972;4.450;2023-02-17T06:52:23;101692.97;;;8.86;100.00
69836;BME280;57132;51.972;4.450;2023-02-17T06:54:48;101682.03;;;8.92;100.00
69836;BME280;57132;51.972;4.450;2023-02-17T06:57:14;101695.19;;;8.95;100.00
69836;BME280;57132;51.972;4.450;2023-02-17T06:59:39;101693.41;;;8.96;100.00
69836;BME280;57132;51.972;4.450;2023-02-17T07:02:05;101678.34;;;8.95;100.00
69836;BME280;57132;51.972;4.450;2023-02-17T07:04:31;101702.47;;;8.92;100.00
69836;BME280;57132;51.972;4.450;2023-02-17T07:06:56;101695.72;;;8.84;100.00
69836;BME280;57132;51.972;4.450;2023-02-17T07:09:22;101684.38;;;8.81;100.00
69836;BME280;57132;51.972;4.450;2023-02-17T07:11:47;101692.44;;;8.79;100.00
69836;BME280;57132;51.972;4.450;2023-02-17T07:14:15;101712.00;;;8.78;100.00
69836;BME280;57132;51.972;4.450;2023-02-17T07:16:40;101710.38;;;8.76;100.00
69836;BME280;57132;51.972;4.450;2023-02-17T07:19:06;101701.53;;;8.75;100.00
69836;BME280;57132;51.972;4.450;2023-02-17T07:21:31;101705.19;;;8.73;100.00
69836;BME280;57132;51.972;4.450;2023-02-17T07:23:56;101705.31;;;8.70;100.00
69836;BME280;57132;51.972;4.450;2023-02-17T07:26:22;101704.84;;;8.61;100.00
69836;BME280;57132;51.972;4.450;2023-02-17T07:28:47;101704.06;;;8.59;100.00
69836;BME280;57132;51.972;4.450;2023-02-17T07:31:15;101714.00;;;8.56;100.00
69836;BME280;57132;51.972;4.450;2023-02-17T07:33:42;101706.00;;;8.56;100.00
69836;BME280;57132;51.972;4.450;2023-02-17T07:36:09;101735.19;;;8.57;100.00
69836;BME280;57132;51.972;4.450;2023-02-17T07:38:36;101712.25;;;8.55;100.00
69836;BME280;57132;51.972;4.450;2023-02-17T07:41:06;101713.19;;;8.54;100.00
69836;BME280;57132;51.972;4.450;2023-02-17T07:43:32;101691.03;;;8.53;100.00
69836;BME280;57132;51.972;4.450;2023-02-17T07:45:57;101779.81;;;8.52;100.00
69836;BME280;57132;51.972;4.450;2023-02-17T07:48:23;101704.50;;;8.50;100.00
69836;BME280;57132;51.972;4.450;2023-02-17T07:50:48;101716.00;;;8.51;100.00
69836;BME280;57132;51.972;4.450;2023-02-17T07:53:14;101707.81;;;8.55;100.00
69836;BME280;57132;51.972;4.450;2023-02-17T07:55:39;101726.44;;;8.55;100.00
69836;BME280;57132;51.972;4.450;2023-02-17T07:58:04;101720.19;;;8.56;100.00
69836;BME280;57132;51.972;4.450;2023-02-17T08:00:30;101714.78;;;8.58;100.00
69836;BME280;57132;51.972;4.450;2023-02-17T08:02:55;101715.63;;;8.58;100.00
69836;BME280;57132;51.972;4.450;2023-02-17T08:05:20;101712.97;;;8.58;100.00
69836;BME280;57132;51.972;4.450;2023-02-17T08:07:46;101730.59;;;8.61;100.00
69836;BME280;57132;51.972;4.450;2023-02-17T08:10:12;101745.56;;;8.64;100.00
69836;BME280;57132;51.972;4.450;2023-02-17T08:12:55;101749.81;;;8.68;100.00
69836;BME280;57132;51.972;4.450;2023-02-17T08:15:39;101747.06;;;8.69;100.00
69836;BME280;57132;51.972;4.450;2023-02-17T08:18:05;101742.59;;;8.70;100.00
69836;BME280;57132;51.972;4.450;2023-02-17T08:20:31;101738.13;;;8.70;100.00
69836;BME280;57132;51.972;4.450;2023-02-17T08:22:56;101730.09;;;8.72;100.00
69836;BME280;57132;51.972;4.450;2023-02-17T08:25:22;101736.19;;;8.74;100.00
69836;BME280;57132;51.972;4.450;2023-02-17T08:27:47;101726.34;;;8.76;100.00
69836;BME280;57132;51.972;4.450;2023-02-17T08:30:12;101727.25;;;8.75;100.00
69836;BME280;57132;51.972;4.450;2023-02-17T08:32:38;101745.88;;;8.75;100.00
69836;BME280;57132;51.972;4.450;2023-02-17T08:35:03;101750.28;;;8.76;100.00
69836;BME280;57132;51.972;4.450;2023-02-17T08:37:30;101732.28;;;8.81;100.00
69836;BME280;57132;51.972;4.450;2023-02-17T08:39:56;101734.84;;;8.82;100.00
69836;BME280;57132;51.972;4.450;2023-02-17T08:42:24;101744.41;;;8.86;100.00
69836;BME280;57132;51.972;4.450;2023-02-17T08:44:50;101734.56;;;8.89;100.00
69836;BME280;57132;51.972;4.450;2023-02-17T08:47:15;101739.91;;;8.89;100.00
69836;BME280;57132;51.972;4.450;2023-02-17T08:49:41;101769.97;;;8.91;100.00
69836;BME280;57132;51.972;4.450;2023-02-17T08:52:06;101751.41;;;8.89;100.00
69836;BME280;57132;51.972;4.450;2023-02-17T08:54:33;101761.97;;;8.91;100.00
69836;BME280;57132;51.972;4.450;2023-02-17T08:56:59;101764.47;;;8.94;100.00
69836;BME280;57132;51.972;4.450;2023-02-17T08:59:24;101761.06;;;8.92;100.00
69836;BME280;57132;51.972;4.450;2023-02-17T09:01:49;101745.22;;;8.89;100.00
69836;BME280;57132;51.972;4.450;2023-02-17T09:04:15;101750.53;;;8.89;100.00
69836;BME280;57132;51.972;4.450;2023-02-17T09:06:48;101749.69;;;8.88;100.00
69836;BME280;57132;51.972;4.450;2023-02-17T09:09:15;101757.59;;;8.90;100.00
69836;BME280;57132;51.972;4.450;2023-02-17T09:11:42;101740.84;;;8.88;100.00
69836;BME280;57132;51.972;4.450;2023-02-17T09:14:08;101766.59;;;8.87;100.00
69836;BME280;57132;51.972;4.450;2023-02-17T09:16:33;101775.13;;;8.94;100.00
69836;BME280;57132;51.972;4.450;2023-02-17T09:18:59;101767.81;;;8.99;100.00
69836;BME280;57132;51.972;4.450;2023-02-17T09:21:24;101783.84;;;8.97;100.00
69836;BME280;57132;51.972;4.450;2023-02-17T09:23:50;101770.66;;;8.94;100.00
69836;BME280;57132;51.972;4.450;2023-02-17T09:26:17;101770.63;;;8.96;100.00
69836;BME280;57132;51.972;4.450;2023-02-17T09:28:43;101764.44;;;8.95;100.00
69836;BME280;57132;51.972;4.450;2023-02-17T09:31:11;101766.88;;;9.00;100.00
69836;BME280;57132;51.972;4.450;2023-02-17T09:33:41;101759.72;;;9.00;100.00
69836;BME280;57132;51.972;4.450;2023-02-17T09:36:09;101748.06;;;9.03;100.00
69836;BME280;57132;51.972;4.450;2023-02-17T09:38:38;101755.84;;;9.07;100.00
69836;BME280;57132;51.972;4.450;2023-02-17T09:41:26;101775.00;;;9.14;100.00
69836;BME280;57132;51.972;4.450;2023-02-17T09:43:54;101776.28;;;9.24;100.00
69836;BME280;57132;51.972;4.450;2023-02-17T09:46:25;101789.09;;;9.35;100.00
69836;BME280;57132;51.972;4.450;2023-02-17T09:48:54;101773.56;;;9.43;100.00
69836;BME280;57132;51.972;4.450;2023-02-17T09:51:33;101791.03;;;9.49;100.00
69836;BME280;57132;51.972;4.450;2023-02-17T09:54:34;101772.31;;;9.50;100.00
69836;BME280;57132;51.972;4.450;2023-02-17T09:57:03;101776.31;;;9.59;100.00
69836;BME280;57132;51.972;4.450;2023-02-17T09:59:37;101775.09;;;9.65;100.00
69836;BME280;57132;51.972;4.450;2023-02-17T10:02:13;101796.53;;;9.63;100.00
69836;BME280;57132;51.972;4.450;2023-02-17T10:04:44;101819.97;;;9.56;100.00
69836;BME280;57132;51.972;4.450;2023-02-17T10:07:28;101790.50;;;9.59;100.00
69836;BME280;57132;51.972;4.450;2023-02-17T10:10:04;101805.44;;;9.62;100.00
69836;BME280;57132;51.972;4.450;2023-02-17T10:12:33;101797.53;;;9.60;100.00
69836;BME280;57132;51.972;4.450;2023-02-17T10:15:08;101804.06;;;9.55;100.00
69836;BME280;57132;51.972;4.450;2023-02-17T10:18:05;101811.25;;;9.53;100.00
69836;BME280;57132;51.972;4.450;2023-02-17T10:20:39;101810.53;;;9.49;100.00
69836;BME280;57132;51.972;4.450;2023-02-17T10:25:43;101796.69;;;9.60;100.00
69836;BME280;57132;51.972;4.450;2023-02-17T10:34:03;101836.66;;;9.60;100.00
69836;BME280;57132;51.972;4.450;2023-02-17T10:39:15;101821.63;;;9.59;100.00
69836;BME280;57132;51.972;4.450;2023-02-17T10:41:47;101817.16;;;9.59;100.00
69836;BME280;57132;51.972;4.450;2023-02-17T10:44:19;101832.34;;;9.57;100.00
69836;BME280;57132;51.972;4.450;2023-02-17T10:46:45;101857.66;;;9.49;100.00
69836;BME280;57132;51.972;4.450;2023-02-17T10:49:25;101824.97;;;9.45;100.00
69836;BME280;57132;51.972;4.450;2023-02-17T10:51:52;101860.56;;;9.44;100.00
69836;BME280;57132;51.972;4.450;2023-02-17T10:56:51;101851.84;;;9.41;100.00
69836;BME280;57132;51.972;4.450;2023-02-17T10:59:39;101859.13;;;9.37;100.00
69836;BME280;57132;51.972;4.450;2023-02-17T11:04:45;101872.81;;;9.29;100.00
69836;BME280;57132;51.972;4.450;2023-02-17T11:07:14;101851.38;;;9.32;100.00
69836;BME280;57132;51.972;4.450;2023-02-17T11:09:47;101872.69;;;9.32;100.00
69836;BME280;57132;51.972;4.450;2023-02-17T11:12:37;101840.94;;;9.28;100.00
69836;BME280;57132;51.972;4.450;2023-02-17T11:15:13;101849.88;;;9.27;100.00
69836;BME280;57132;51.972;4.450;2023-02-17T11:17:40;101854.97;;;9.31;100.00
69836;BME280;57132;51.972;4.450;2023-02-17T11:20:26;101847.97;;;9.29;100.00
69836;BME280;57132;51.972;4.450;2023-02-17T11:25:41;101852.09;;;9.53;100.00
69836;BME280;57132;51.972;4.450;2023-02-17T11:28:13;101828.28;;;9.50;100.00
69836;BME280;57132;51.972;4.450;2023-02-17T11:30:47;101869.03;;;9.52;100.00
69836;BME280;57132;51.972;4.450;2023-02-17T11:33:18;101841.53;;;9.52;100.00
69836;BME280;57132;51.972;4.450;2023-02-17T11:35:46;101856.66;;;9.51;100.00
69836;BME280;57132;51.972;4.450;2023-02-17T11:38:16;101862.75;;;9.53;100.00
69836;BME280;57132;51.972;4.450;2023-02-17T11:40:55;101868.03;;;9.55;100.00
69836;BME280;57132;51.972;4.450;2023-02-17T11:43:20;101861.97;;;9.51;100.00
69836;BME280;57132;51.972;4.450;2023-02-17T11:54:58;101877.66;;;9.57;100.00
69836;BME280;57132;51.972;4.450;2023-02-17T12:03:03;101870.78;;;9.71;100.00
69836;BME280;57132;51.972;4.450;2023-02-17T12:16:20;101878.69;;;10.07;100.00
69836;BME280;57132;51.972;4.450;2023-02-17T12:33:15;101905.13;;;10.12;100.00
69836;BME280;57132;51.972;4.450;2023-02-17T12:36:19;101915.78;;;10.12;100.00
69836;BME280;57132;51.972;4.450;2023-02-17T12:38:41;101909.03;;;10.04;100.00
69836;BME280;57132;51.972;4.450;2023-02-17T12:43:49;101927.09;;;9.99;100.00
69836;BME280;57132;51.972;4.450;2023-02-17T12:46:22;101916.72;;;9.93;100.00
69836;BME280;57132;51.972;4.450;2023-02-17T12:49:05;101947.41;;;9.84;100.00
69836;BME280;57132;51.972;4.450;2023-02-17T12:55:02;101940.88;;;9.73;100.00
69836;BME280;57132;51.972;4.450;2023-02-17T13:00:20;101931.53;;;9.64;100.00
69836;BME280;57132;51.972;4.450;2023-02-17T13:02:46;101952.06;;;9.62;100.00
69836;BME280;57132;51.972;4.450;2023-02-17T13:05:21;101911.22;;;9.61;100.00
69836;BME280;57132;51.972;4.450;2023-02-17T13:12:56;101936.84;;;9.64;100.00
69836;BME280;57132;51.972;4.450;2023-02-17T13:15:37;101947.88;;;9.75;100.00
69836;BME280;57132;51.972;4.450;2023-02-17T13:18:06;101966.28;;;9.80;100.00
69836;BME280;57132;51.972;4.450;2023-02-17T13:23:26;101924.97;;;9.89;100.00
69836;BME280;57132;51.972;4.450;2023-02-17T13:26:14;101937.28;;;9.91;100.00
69836;BME280;57132;51.972;4.450;2023-02-17T13:28:42;101937.75;;;9.99;100.00
69836;BME280;57132;51.972;4.450;2023-02-17T13:31:16;101923.31;;;10.03;100.00
69836;BME280;57132;51.972;4.450;2023-02-17T13:33:54;101935.72;;;10.04;100.00
69836;BME280;57132;51.972;4.450;2023-02-17T13:38:59;101950.47;;;10.12;100.00
69836;BME280;57132;51.972;4.450;2023-02-17T13:41:27;101946.94;;;10.11;100.00
69836;BME280;57132;51.972;4.450;2023-02-17T13:43:53;101957.22;;;10.19;100.00
69836;BME280;57132;51.972;4.450;2023-02-17T13:46:23;101946.97;;;10.28;100.00
69836;BME280;57132;51.972;4.450;2023-02-17T13:49:01;101956.53;;;10.32;100.00
69836;BME280;57132;51.972;4.450;2023-02-17T13:51:28;101935.72;;;10.22;100.00
69836;BME280;57132;51.972;4.450;2023-02-17T13:53:54;101922.53;;;10.19;100.00
69836;BME280;57132;51.972;4.450;2023-02-17T13:56:28;101900.50;;;10.15;100.00
69836;BME280;57132;51.972;4.450;2023-02-17T13:59:05;101933.38;;;10.16;100.00
69836;BME280;57132;51.972;4.450;2023-02-17T14:01:35;101943.56;;;10.07;100.00
69836;BME280;57132;51.972;4.450;2023-02-17T14:04:01;101936.53;;;10.06;100.00
69836;BME280;57132;51.972;4.450;2023-02-17T14:06:37;101910.00;;;10.03;100.00
69836;BME280;57132;51.972;4.450;2023-02-17T14:09:24;101925.03;;;10.04;100.00
69836;BME280;57132;51.972;4.450;2023-02-17T14:11:51;101928.34;;;10.09;100.00
69836;BME280;57132;51.972;4.450;2023-02-17T14:14:18;101925.47;;;10.14;100.00
69836;BME280;57132;51.972;4.450;2023-02-17T14:16:53;101932.50;;;10.15;100.00
69836;BME280;57132;51.972;4.450;2023-02-17T14:19:19;101935.88;;;10.19;100.00
69836;BME280;57132;51.972;4.450;2023-02-17T14:24:37;101942.66;;;10.26;100.00
69836;BME280;57132;51.972;4.450;2023-02-17T14:27:08;101942.50;;;10.29;100.00
69836;BME280;57132;51.972;4.450;2023-02-17T14:29:40;101932.38;;;10.36;100.00
69836;BME280;57132;51.972;4.450;2023-02-17T14:32:05;101945.22;;;10.45;100.00
69836;BME280;57132;51.972;4.450;2023-02-17T14:34:34;101952.34;;;10.62;100.00
69836;BME280;57132;51.972;4.450;2023-02-17T14:37:17;101988.31;;;10.54;100.00
69836;BME280;57132;51.972;4.450;2023-02-17T14:39:45;101947.72;;;10.48;100.00
69836;BME280;57132;51.972;4.450;2023-02-17T14:42:10;101950.50;;;10.46;100.00